sensor_id;sensor_type;location;lat;lon;timestamp;pressure;altitude;pressure_sealevel;temperature;humidity
41513;BME280;27244;59.940;30.280;2023-10-31T00:00:36;100784.44;;;22.50;31.44
41513;BME280;27244;59.940;30.280;2023-10-31T00:03:05;100782.78;;;22.53;31.53
41513;BME280;27244;59.940;30.280;2023-10-31T00:05:32;100773.97;;;22.51;31.46
41513;BME280;27244;59.940;30.280;2023-10-31T00:07:59;100772.75;;;22.52;31.16
41513;BME280;27244;59.940;30.280;2023-10-31T00:10:26;100779.25;;;22.49;31.27
41513;BME280;27244;59.940;30.280;2023-10-31T00:12:53;100774.44;;;22.49;31.28
41513;BME280;27244;59.940;30.280;2023-10-31T00:15:20;100777.25;;;22.49;31.05
41513;BME280;27244;59.940;30.280;2023-10-31T00:17:47;100773.19;;;22.50;30.92
41513;BME280;27244;59.940;30.280;2023-10-31T00:20:16;100773.25;;;22.47;31.02
41513;BME280;27244;59.940;30.280;2023-10-31T00:22:43;100782.16;;;22.45;30.92
41513;BME280;27244;59.940;30.280;2023-10-31T00:25:10;100797.41;;;22.44;30.61
41513;BME280;27244;59.940;30.280;2023-10-31T00:27:37;100811.41;;;22.48;31.08
41513;BME280;27244;59.940;30.280;2023-10-31T00:30:05;100819.03;;;22.47;31.09
41513;BME280;27244;59.940;30.280;2023-10-31T00:32:32;100825.47;;;22.48;30.90
41513;BME280;27244;59.940;30.280;2023-10-31T00:35:00;100835.47;;;22.49;30.95
41513;BME280;27244;59.940;30.280;2023-10-31T00:37:28;100830.66;;;22.49;30.71
41513;BME280;27244;59.940;30.280;2023-10-31T00:39:55;100830.72;;;22.46;30.75
41513;BME280;27244;59.940;30.280;2023-10-31T00:42:22;100833.88;;;22.48;30.79
41513;BME280;27244;59.940;30.280;2023-10-31T00:44:49;100835.91;;;22.47;30.76
41513;BME280;27244;59.940;30.280;2023-10-31T00:47:16;100835.09;;;22.47;30.79
41513;BME280;27244;59.940;30.280;2023-10-31T00:49:43;100828.25;;;22.48;30.62
41513;BME280;27244;59.940;30.280;2023-10-31T00:52:10;100817.44;;;22.46;30.59
41513;BME280;27244;59.940;30.280;2023-10-31T00:54:39;100819.03;;;22.47;30.72
41513;BME280;27244;59.940;30.280;2023-10-31T00:57:06;100818.69;;;22.45;30.37
41513;BME280;27244;59.940;30.280;2023-10-31T00:59:33;100833.16;;;22.44;30.52
41513;BME280;27244;59.940;30.280;2023-10-31T01:02:00;100837.56;;;22.45;30.46
41513;BME280;27244;59.940;30.280;2023-10-31T01:04:27;100823.22;;;22.39;30.39
41513;BME280;27244;59.940;30.280;2023-10-31T01:06:54;100818.31;;;22.43;30.48
41513;BME280;27244;59.940;30.280;2023-10-31T01:09:21;100815.50;;;22.43;30.52
41513;BME280;27244;59.940;30.280;2023-10-31T01:11:50;100815.88;;;22.45;30.37
41513;BME280;27244;59.940;30.280;2023-10-31T01:14:17;100823.16;;;22.43;30.25
41513;BME280;27244;59.940;30.280;2023-10-31T01:16:44;100818.31;;;22.43;30.23
41513;BME280;27244;59.940;30.280;2023-10-31T01:19:11;100819.91;;;22.44;30.40
41513;BME280;27244;59.940;30.280;2023-10-31T01:21:38;100818.78;;;22.42;30.27
41513;BME280;27244;59.940;30.280;2023-10-31T01:24:06;100835.19;;;22.43;30.34
41513;BME280;27244;59.940;30.280;2023-10-31T01:26:34;100835.19;;;22.43;30.31
41513;BME280;27244;59.940;30.280;2023-10-31T01:29:03;100834.75;;;22.45;30.22
41513;BME280;27244;59.940;30.280;2023-10-31T01:31:30;100840.38;;;22.45;30.11
41513;BME280;27244;59.940;30.280;2023-10-31T01:33:58;100837.56;;;22.45;30.12
41513;BME280;27244;59.940;30.280;2023-10-31T01:36:25;100829.56;;;22.43;30.13
41513;BME280;27244;59.940;30.280;2023-10-31T01:38:52;100825.59;;;22.41;30.35
41513;BME280;27244;59.940;30.280;2023-10-31T01:41:19;100830.34;;;22.44;30.09
41513;BME280;27244;59.940;30.280;2023-10-31T01:43:46;100804.34;;;22.40;30.28
41513;BME280;27244;59.940;30.280;2023-10-31T01:46:15;100812.28;;;22.45;30.37
41513;BME280;27244;59.940;30.280;2023-10-31T01:48:42;100806.28;;;22.43;30.27
41513;BME280;27244;59.940;30.280;2023-10-31T01:51:09;100824.47;;;22.38;30.34
41513;BME280;27244;59.940;30.280;2023-10-31T01:53:37;100817.59;;;22.39;29.91
41513;BME280;27244;59.940;30.280;2023-10-31T01:56:05;100810.69;;;22.44;29.99
41513;BME280;27244;59.940;30.280;2023-10-31T01:58:34;100783.38;;;22.44;30.26
41513;BME280;27244;59.940;30.280;2023-10-31T02:01:02;100775.34;;;22.43;30.28
41513;BME280;27244;59.940;30.280;2023-10-31T02:03:31;100754.47;;;22.44;30.22
41513;BME280;27244;59.940;30.280;2023-10-31T02:05:59;100761.31;;;22.43;30.25
41513;BME280;27244;59.940;30.280;2023-10-31T02:08:26;100770.53;;;22.43;30.32
41513;BME280;27244;59.940;30.280;2023-10-31T02:10:53;100788.66;;;22.42;30.20
41513;BME280;27244;59.940;30.280;2023-10-31T02:13:20;100796.63;;;22.44;30.28
41513;BME280;27244;59.940;30.280;2023-10-31T02:15:47;100808.66;;;22.44;30.17
41513;BME280;27244;59.940;30.280;2023-10-31T02:18:15;100799.09;;;22.42;30.19
41513;BME280;27244;59.940;30.280;2023-10-31T02:20:43;100791.09;;;22.40;29.99
41513;BME280;27244;59.940;30.280;2023-10-31T02:23:15;100815.44;;;22.47;30.07
41513;BME280;27244;59.940;30.280;2023-10-31T02:25:42;100815.00;;;22.68;30.20
41513;BME280;27244;59.940;30.280;2023-10-31T02:28:09;100816.69;;;22.46;29.86
41513;BME280;27244;59.940;30.280;2023-10-31T02:30:36;100811.91;;;22.43;29.77
41513;BME280;27244;59.940;30.280;2023-10-31T02:33:03;100819.56;;;22.42;29.82
41513;BME280;27244;59.940;30.280;2023-10-31T02:35:30;100812.50;;;22.34;29.91
41513;BME280;27244;59.940;30.280;2023-10-31T02:37:58;100818.41;;;22.40;29.64
41513;BME280;27244;59.940;30.280;2023-10-31T02:40:26;100812.34;;;22.41;29.72
41513;BME280;27244;59.940;30.280;2023-10-31T02:42:53;100811.97;;;22.39;29.90
41513;BME280;27244;59.940;30.280;2023-10-31T02:45:20;100839.31;;;22.39;29.48
41513;BME280;27244;59.940;30.280;2023-10-31T02:47:47;100851.78;;;22.38;29.82
41513;BME280;27244;59.940;30.280;2023-10-31T02:50:14;100856.19;;;22.39;29.70
41513;BME280;27244;59.940;30.280;2023-10-31T02:52:41;100856.19;;;22.39;29.58
41513;BME280;27244;59.940;30.280;2023-10-31T02:55:09;100859.41;;;22.37;29.62
41513;BME280;27244;59.940;30.280;2023-10-31T02:57:37;100864.63;;;22.39;29.74
41513;BME280;27244;59.940;30.280;2023-10-31T03:00:07;100881.47;;;22.39;29.67
41513;BME280;27244;59.940;30.280;2023-10-31T03:02:35;100887.50;;;22.37;29.25
41513;BME280;27244;59.940;30.280;2023-10-31T03:05:02;100899.97;;;22.36;29.27
41513;BME280;27244;59.940;30.280;2023-10-31T03:07:30;100893.94;;;22.38;29.79
41513;BME280;27244;59.940;30.280;2023-10-31T03:09:57;100895.53;;;22.39;29.45
41513;BME280;27244;59.940;30.280;2023-10-31T03:12:24;100899.56;;;22.38;29.74
41513;BME280;27244;59.940;30.280;2023-10-31T03:14:55;100895.06;;;22.40;29.71
41513;BME280;27244;59.940;30.280;2023-10-31T03:17:22;100905.19;;;22.38;29.85
41513;BME280;27244;59.940;30.280;2023-10-31T03:19:51;100911.59;;;22.38;29.75
41513;BME280;27244;59.940;30.280;2023-10-31T03:22:18;100899.63;;;22.34;29.84
41513;BME280;27244;59.940;30.280;2023-10-31T03:24:45;100897.22;;;22.33;29.68
41513;BME280;27244;59.940;30.280;2023-10-31T03:27:12;100910.78;;;22.38;29.70
41513;BME280;27244;59.940;30.280;2023-10-31T03:29:39;100897.16;;;22.36;29.70
41513;BME280;27244;59.940;30.280;2023-10-31T03:32:08;100899.56;;;22.38;29.51
41513;BME280;27244;59.940;30.280;2023-10-31T03:34:35;100887.25;;;22.32;29.63
41513;BME280;27244;59.940;30.280;2023-10-31T03:37:03;100887.59;;;22.34;29.55
41513;BME280;27244;59.940;30.280;2023-10-31T03:39:30;100883.56;;;22.35;29.13
41513;BME280;27244;59.940;30.280;2023-10-31T03:41:58;100891.53;;;22.36;29.42
41513;BME280;27244;59.940;30.280;2023-10-31T03:44:25;100886.38;;;22.35;29.36
41513;BME280;27244;59.940;30.280;2023-10-31T03:46:52;100891.53;;;22.36;29.38
41513;BME280;27244;59.940;30.280;2023-10-31T03:49:20;100888.31;;;22.38;29.49
41513;BME280;27244;59.940;30.280;2023-10-31T03:51:47;100874.34;;;22.34;29.39
41513;BME280;27244;59.940;30.280;2023-10-31T03:54:15;100866.69;;;22.35;29.40
41513;BME280;27244;59.940;30.280;2023-10-31T03:56:43;100877.13;;;22.34;29.19
41513;BME280;27244;59.940;30.280;2023-10-31T03:59:10;100885.13;;;22.36;29.31
41513;BME280;27244;59.940;30.280;2023-10-31T04:01:37;100887.59;;;22.34;29.48
41513;BME280;27244;59.940;30.280;2023-10-31T04:04:05;100879.16;;;22.34;29.34
41513;BME280;27244;59.940;30.280;2023-10-31T04:06:34;100865.44;;;22.36;29.02
41513;BME280;27244;59.940;30.280;2023-10-31T04:09:04;100851.53;;;22.29;29.21
41513;BME280;27244;59.940;30.280;2023-10-31T04:11:31;100882.75;;;22.34;29.13
41513;BME280;27244;59.940;30.280;2023-10-31T04:13:58;100880.38;;;22.33;29.05
41513;BME280;27244;59.940;30.280;2023-10-31T04:16:25;100866.84;;;22.28;29.17
41513;BME280;27244;59.940;30.280;2023-10-31T04:18:52;100883.63;;;22.31;29.08
41513;BME280;27244;59.940;30.280;2023-10-31T04:21:19;100890.03;;;22.32;29.10
41513;BME280;27244;59.940;30.280;2023-10-31T04:23:48;100882.38;;;22.32;29.16
41513;BME280;27244;59.940;30.280;2023-10-31T04:26:15;100887.66;;;22.30;28.97
41513;BME280;27244;59.940;30.280;2023-10-31T04:28:42;100876.41;;;22.30;28.90
41513;BME280;27244;59.940;30.280;2023-10-31T04:31:10;100881.25;;;22.30;28.95
41513;BME280;27244;59.940;30.280;2023-10-31T04:33:37;100896.09;;;22.30;28.88
41513;BME280;27244;59.940;30.280;2023-10-31T04:36:04;100896.50;;;22.29;29.04
41513;BME280;27244;59.940;30.280;2023-10-31T04:38:32;100894.88;;;22.31;28.80
41513;BME280;27244;59.940;30.280;2023-10-31T04:41:00;100890.13;;;22.28;28.98
41513;BME280;27244;59.940;30.280;2023-10-31T04:43:27;100896.94;;;22.27;28.79
41513;BME280;27244;59.940;30.280;2023-10-31T04:45:54;100909.34;;;22.30;28.81
41513;BME280;27244;59.940;30.280;2023-10-31T04:48:21;100914.97;;;22.30;28.70
41513;BME280;27244;59.940;30.280;2023-10-31T04:50:48;100903.50;;;22.21;28.74
41513;BME280;27244;59.940;30.280;2023-10-31T04:53:15;100918.56;;;22.30;28.65
41513;BME280;27244;59.940;30.280;2023-10-31T04:55:42;100906.13;;;22.31;28.64
41513;BME280;27244;59.940;30.280;2023-10-31T04:58:11;100902.06;;;22.32;28.53
41513;BME280;27244;59.940;30.280;2023-10-31T05:00:38;100896.50;;;22.29;28.80
41513;BME280;27244;59.940;30.280;2023-10-31T05:03:05;100896.50;;;22.29;28.68
41513;BME280;27244;59.940;30.280;2023-10-31T05:05:32;100898.09;;;22.30;28.64
41513;BME280;27244;59.940;30.280;2023-10-31T05:07:59;100903.72;;;22.30;28.42
41513;BME280;27244;59.940;30.280;2023-10-31T05:10:26;100906.97;;;22.28;28.43
41513;BME280;27244;59.940;30.280;2023-10-31T05:12:53;100904.94;;;22.29;28.59
41513;BME280;27244;59.940;30.280;2023-10-31T05:15:22;100903.72;;;22.30;28.42
41513;BME280;27244;59.940;30.280;2023-10-31T05:17:49;100908.53;;;22.29;28.51
41513;BME280;27244;59.940;30.280;2023-10-31T05:20:16;100896.16;;;22.27;28.38
41513;BME280;27244;59.940;30.280;2023-10-31T05:22:43;100890.53;;;22.27;28.39
41513;BME280;27244;59.940;30.280;2023-10-31T05:25:10;100900.63;;;22.24;28.71
41513;BME280;27244;59.940;30.280;2023-10-31T05:27:38;100911.88;;;22.24;28.80
41513;BME280;27244;59.940;30.280;2023-10-31T05:30:06;100919.84;;;22.26;28.91
41513;BME280;27244;59.940;30.280;2023-10-31T05:32:35;100933.47;;;22.27;29.22
41513;BME280;27244;59.940;30.280;2023-10-31T05:35:02;100941.53;;;22.25;29.36
41513;BME280;27244;59.940;30.280;2023-10-31T05:37:29;100943.94;;;22.27;29.61
41513;BME280;27244;59.940;30.280;2023-10-31T05:39:56;100948.34;;;22.28;29.81
41513;BME280;27244;59.940;30.280;2023-10-31T05:42:23;100951.16;;;22.28;29.96
41513;BME280;27244;59.940;30.280;2023-10-31T05:44:51;100959.19;;;22.26;30.20
41513;BME280;27244;59.940;30.280;2023-10-31T05:47:18;100962.38;;;22.28;30.22
41513;BME280;27244;59.940;30.280;2023-10-31T05:49:46;100964.75;;;22.29;30.40
41513;BME280;27244;59.940;30.280;2023-10-31T05:52:13;100969.16;;;22.30;30.40
41513;BME280;27244;59.940;30.280;2023-10-31T05:54:40;100960.78;;;22.27;30.53
41513;BME280;27244;59.940;30.280;2023-10-31T05:57:07;100970.38;;;22.29;30.66
41513;BME280;27244;59.940;30.280;2023-10-31T05:59:34;100972.75;;;22.31;30.82
41513;BME280;27244;59.940;30.280;2023-10-31T06:02:01;100974.78;;;22.30;30.89
41513;BME280;27244;59.940;30.280;2023-10-31T06:04:28;100992.44;;;22.31;31.03
41513;BME280;27244;59.940;30.280;2023-10-31T06:07:00;100990.28;;;22.38;30.98
41513;BME280;27244;59.940;30.280;2023-10-31T06:09:28;100981.94;;;22.35;30.91
41513;BME280;27244;59.940;30.280;2023-10-31T06:11:55;100994.81;;;22.32;31.38
41513;BME280;27244;59.940;30.280;2023-10-31T06:14:25;100982.34;;;22.33;31.31
41513;BME280;27244;59.940;30.280;2023-10-31T06:16:52;100979.53;;;22.33;31.64
41513;BME280;27244;59.940;30.280;2023-10-31T06:19:20;100967.13;;;22.31;31.75
41513;BME280;27244;59.940;30.280;2023-10-31T06:21:47;100971.53;;;22.32;31.70
41513;BME280;27244;59.940;30.280;2023-10-31T06:24:17;100971.91;;;22.34;31.89
41513;BME280;27244;59.940;30.280;2023-10-31T06:26:44;100969.50;;;22.32;31.95
41513;BME280;27244;59.940;30.280;2023-10-31T06:29:11;100975.94;;;22.33;31.95
41513;BME280;27244;59.940;30.280;2023-10-31T06:31:38;100970.31;;;22.33;31.94
41513;BME280;27244;59.940;30.280;2023-10-31T06:34:05;100970.31;;;22.33;32.14
41513;BME280;27244;59.940;30.280;2023-10-31T06:36:32;100963.47;;;22.34;32.21
41513;BME280;27244;59.940;30.280;2023-10-31T06:38:59;100953.09;;;22.31;32.21
41513;BME280;27244;59.940;30.280;2023-10-31T06:41:28;100944.59;;;22.34;32.26
41513;BME280;27244;59.940;30.280;2023-10-31T06:43:55;100950.63;;;22.33;32.51
41513;BME280;27244;59.940;30.280;2023-10-31T06:46:22;100947.81;;;22.33;32.39
41513;BME280;27244;59.940;30.280;2023-10-31T06:48:49;100948.63;;;22.33;32.50
41513;BME280;27244;59.940;30.280;2023-10-31T06:51:17;100951.44;;;22.33;32.40
41513;BME280;27244;59.940;30.280;2023-10-31T06:53:44;100943.78;;;22.34;32.55
41513;BME280;27244;59.940;30.280;2023-10-31T06:56:11;100949.41;;;22.34;32.64
41513;BME280;27244;59.940;30.280;2023-10-31T06:58:39;100939.31;;;22.36;32.66
41513;BME280;27244;59.940;30.280;2023-10-31T07:01:07;100928.53;;;22.35;32.77
41513;BME280;27244;59.940;30.280;2023-10-31T07:03:35;100930.09;;;22.36;32.93
41513;BME280;27244;59.940;30.280;2023-10-31T07:06:02;100909.00;;;22.28;33.58
41513;BME280;27244;59.940;30.280;2023-10-31T07:08:29;100915.19;;;22.39;33.21
41513;BME280;27244;59.940;30.280;2023-10-31T07:10:56;100911.53;;;22.42;32.99
41513;BME280;27244;59.940;30.280;2023-10-31T07:13:23;100904.66;;;22.43;32.97
41513;BME280;27244;59.940;30.280;2023-10-31T07:15:51;100905.03;;;22.45;33.00
41513;BME280;27244;59.940;30.280;2023-10-31T07:18:18;100894.66;;;22.42;33.23
41513;BME280;27244;59.940;30.280;2023-10-31T07:20:45;100895.47;;;22.42;33.26
41513;BME280;27244;59.940;30.280;2023-10-31T07:23:12;100898.25;;;22.42;33.50
41513;BME280;27244;59.940;30.280;2023-10-31T07:25:40;100901.84;;;22.43;33.56
41513;BME280;27244;59.940;30.280;2023-10-31T07:28:09;100893.78;;;22.45;33.64
41513;BME280;27244;59.940;30.280;2023-10-31T07:30:36;100885.78;;;22.43;33.99
41513;BME280;27244;59.940;30.280;2023-10-31T07:33:04;100887.72;;;22.46;34.17
41513;BME280;27244;59.940;30.280;2023-10-31T07:35:32;100885.34;;;22.45;34.78
41513;BME280;27244;59.940;30.280;2023-10-31T07:37:59;100901.44;;;22.44;35.10
41513;BME280;27244;59.940;30.280;2023-10-31T07:40:33;100905.44;;;22.43;35.26
41513;BME280;27244;59.940;30.280;2023-10-31T07:43:00;100910.66;;;22.45;35.19
41513;BME280;27244;59.940;30.280;2023-10-31T07:45:28;100891.31;;;22.47;35.35
41513;BME280;27244;59.940;30.280;2023-10-31T07:47:55;100880.09;;;22.47;35.21
41513;BME280;27244;59.940;30.280;2023-10-31T07:50:23;100861.00;;;22.38;34.94
41513;BME280;27244;59.940;30.280;2023-10-31T07:52:50;100883.28;;;22.49;34.93
41513;BME280;27244;59.940;30.280;2023-10-31T07:55:18;100882.81;;;22.50;34.92
41513;BME280;27244;59.940;30.280;2023-10-31T07:57:45;100878.00;;;22.51;34.75
41513;BME280;27244;59.940;30.280;2023-10-31T08:00:13;100888.44;;;22.50;34.63
41513;BME280;27244;59.940;30.280;2023-10-31T08:02:41;100900.06;;;22.52;34.40
41513;BME280;27244;59.940;30.280;2023-10-31T08:05:11;100910.03;;;22.57;34.55
41513;BME280;27244;59.940;30.280;2023-10-31T08:07:39;100907.69;;;22.52;34.80
41513;BME280;27244;59.940;30.280;2023-10-31T08:10:07;100904.97;;;22.48;34.80
41513;BME280;27244;59.940;30.280;2023-10-31T08:12:34;100916.22;;;22.48;34.97
41513;BME280;27244;59.940;30.280;2023-10-31T08:15:04;100917.34;;;22.51;34.77
41513;BME280;27244;59.940;30.280;2023-10-31T08:17:32;100919.81;;;22.49;34.94
41513;BME280;27244;59.940;30.280;2023-10-31T08:19:59;100917.00;;;22.49;34.44
41513;BME280;27244;59.940;30.280;2023-10-31T08:22:25;100927.03;;;22.50;34.93
41513;BME280;27244;59.940;30.280;2023-10-31T08:24:53;100932.22;;;22.51;34.89
41513;BME280;27244;59.940;30.280;2023-10-31T08:27:20;100919.81;;;22.49;34.91
41513;BME280;27244;59.940;30.280;2023-10-31T08:29:47;100929.84;;;22.50;34.83
41513;BME280;27244;59.940;30.280;2023-10-31T08:32:14;100917.06;;;22.45;35.01
41513;BME280;27244;59.940;30.280;2023-10-31T08:34:41;100929.84;;;22.50;34.92
41513;BME280;27244;59.940;30.280;2023-10-31T08:37:10;100934.22;;;22.51;34.85
41513;BME280;27244;59.940;30.280;2023-10-31T08:39:43;100929.78;;;22.53;34.87
41513;BME280;27244;59.940;30.280;2023-10-31T08:42:11;100917.81;;;22.49;35.10
41513;BME280;27244;59.940;30.280;2023-10-31T08:44:40;100917.34;;;22.51;35.15
41513;BME280;27244;59.940;30.280;2023-10-31T08:47:07;100925.78;;;22.51;34.88
41513;BME280;27244;59.940;30.280;2023-10-31T08:49:34;100932.22;;;22.51;35.24
41513;BME280;27244;59.940;30.280;2023-10-31T08:52:02;100933.00;;;22.52;35.16
41513;BME280;27244;59.940;30.280;2023-10-31T08:54:30;100929.47;;;22.48;35.35
41513;BME280;27244;59.940;30.280;2023-10-31T08:56:57;100926.59;;;22.51;35.27
41513;BME280;27244;59.940;30.280;2023-10-31T08:59:25;100928.97;;;22.53;35.30
41513;BME280;27244;59.940;30.280;2023-10-31T09:01:52;100918.94;;;22.52;35.38
41513;BME280;27244;59.940;30.280;2023-10-31T09:04:19;100933.00;;;22.52;35.38
41513;BME280;27244;59.940;30.280;2023-10-31T09:06:46;100932.22;;;22.51;35.41
41513;BME280;27244;59.940;30.280;2023-10-31T09:09:13;100920.88;;;22.55;35.37
41513;BME280;27244;59.940;30.280;2023-10-31T09:11:40;100909.66;;;22.55;35.36
41513;BME280;27244;59.940;30.280;2023-10-31T09:14:07;100906.03;;;22.54;35.38
41513;BME280;27244;59.940;30.280;2023-10-31T09:16:36;100887.59;;;22.53;35.37
41513;BME280;27244;59.940;30.280;2023-10-31T09:19:03;100892.06;;;22.51;35.32
41513;BME280;27244;59.940;30.280;2023-10-31T09:21:30;100900.78;;;22.56;35.32
41513;BME280;27244;59.940;30.280;2023-10-31T09:23:57;100897.19;;;22.56;35.31
41513;BME280;27244;59.940;30.280;2023-10-31T09:26:24;100895.16;;;22.56;35.40
41513;BME280;27244;59.940;30.280;2023-10-31T09:28:51;100887.16;;;22.55;35.43
41513;BME280;27244;59.940;30.280;2023-10-31T09:31:18;100888.75;;;22.56;35.47
41513;BME280;27244;59.940;30.280;2023-10-31T09:33:47;100880.31;;;22.56;35.56
41513;BME280;27244;59.940;30.280;2023-10-31T09:36:14;100889.97;;;22.55;35.52
41513;BME280;27244;59.940;30.280;2023-10-31T09:38:41;100890.34;;;22.57;35.50
41513;BME280;27244;59.940;30.280;2023-10-31T09:41:08;100894.38;;;22.56;35.51
41513;BME280;27244;59.940;30.280;2023-10-31T09:43:35;100888.38;;;22.54;35.65
41513;BME280;27244;59.940;30.280;2023-10-31T09:46:03;100887.94;;;22.55;35.59
41513;BME280;27244;59.940;30.280;2023-10-31T09:48:31;100875.09;;;22.54;35.46
41513;BME280;27244;59.940;30.280;2023-10-31T09:51:00;100869.41;;;22.58;35.52
41513;BME280;27244;59.940;30.280;2023-10-31T09:53:29;100871.44;;;22.57;35.89
41513;BME280;27244;59.940;30.280;2023-10-31T09:55:59;100869.41;;;22.58;35.57
41513;BME280;27244;59.940;30.280;2023-10-31T09:58:26;100860.97;;;22.58;35.65
41513;BME280;27244;59.940;30.280;2023-10-31T10:00:53;100866.59;;;22.58;35.79
41513;BME280;27244;59.940;30.280;2023-10-31T10:03:21;100858.97;;;22.58;35.95
41513;BME280;27244;59.940;30.280;2023-10-31T10:05:49;100858.16;;;22.58;35.58
41513;BME280;27244;59.940;30.280;2023-10-31T10:08:17;100852.53;;;22.58;36.38
41513;BME280;27244;59.940;30.280;2023-10-31T10:10:46;100849.81;;;22.54;36.42
41513;BME280;27244;59.940;30.280;2023-10-31T10:13:13;100849.81;;;22.54;36.64
41513;BME280;27244;59.940;30.280;2023-10-31T10:15:45;100845.44;;;22.53;36.91
41513;BME280;27244;59.940;30.280;2023-10-31T10:18:26;100841.16;;;22.65;35.85
41513;BME280;27244;59.940;30.280;2023-10-31T10:20:54;100845.34;;;22.57;36.82
41513;BME280;27244;59.940;30.280;2023-10-31T10:23:24;100851.75;;;22.57;36.97
41513;BME280;27244;59.940;30.280;2023-10-31T10:25:52;100848.66;;;22.52;36.85
41513;BME280;27244;59.940;30.280;2023-10-31T10:28:19;100845.69;;;22.59;36.79
41513;BME280;27244;59.940;30.280;2023-10-31T10:30:46;100848.50;;;22.59;36.79
41513;BME280;27244;59.940;30.280;2023-10-31T10:33:13;100835.34;;;22.56;36.62
41513;BME280;27244;59.940;30.280;2023-10-31T10:35:41;100839.72;;;22.57;36.79
41513;BME280;27244;59.940;30.280;2023-10-31T10:38:11;100821.69;;;22.54;36.78
41513;BME280;27244;59.940;30.280;2023-10-31T10:40:42;100826.38;;;22.61;36.62
41513;BME280;27244;59.940;30.280;2023-10-31T10:43:12;100835.97;;;22.64;36.85
41513;BME280;27244;59.940;30.280;2023-10-31T10:45:42;100834.47;;;22.59;36.98
41513;BME280;27244;59.940;30.280;2023-10-31T10:48:11;100840.06;;;22.59;36.95
41513;BME280;27244;59.940;30.280;2023-10-31T10:50:42;100840.41;;;22.61;37.01
41513;BME280;27244;59.940;30.280;2023-10-31T10:53:14;100830.78;;;22.62;37.00
41513;BME280;27244;59.940;30.280;2023-10-31T10:55:51;100825.06;;;22.66;36.99
41513;BME280;27244;59.940;30.280;2023-10-31T10:58:25;100832.00;;;22.61;36.98
41513;BME280;27244;59.940;30.280;2023-10-31T11:00:56;100830.06;;;22.58;37.12
41513;BME280;27244;59.940;30.280;2023-10-31T11:03:26;100828.41;;;22.61;37.14
41513;BME280;27244;59.940;30.280;2023-10-31T11:05:54;100830.06;;;22.58;37.08
41513;BME280;27244;59.940;30.280;2023-10-31T11:08:23;100826.03;;;22.59;37.15
41513;BME280;27244;59.940;30.280;2023-10-31T11:10:53;100816.44;;;22.56;37.06
41513;BME280;27244;59.940;30.280;2023-10-31T11:13:22;100810.03;;;22.56;37.00
41513;BME280;27244;59.940;30.280;2023-10-31T11:15:52;100814.44;;;22.57;37.15
41513;BME280;27244;59.940;30.280;2023-10-31T11:18:21;100764.09;;;22.27;37.16
41513;BME280;27244;59.940;30.280;2023-10-31T11:20:49;100802.81;;;22.55;37.21
41513;BME280;27244;59.940;30.280;2023-10-31T11:23:16;100804.41;;;22.56;37.11
41513;BME280;27244;59.940;30.280;2023-10-31T11:25:44;100797.47;;;22.61;37.13
41513;BME280;27244;59.940;30.280;2023-10-31T11:28:17;100805.13;;;22.60;37.28
41513;BME280;27244;59.940;30.280;2023-10-31T11:30:46;100787.53;;;22.56;37.24
41513;BME280;27244;59.940;30.280;2023-10-31T11:33:16;100788.69;;;22.58;37.33
41513;BME280;27244;59.940;30.280;2023-10-31T11:35:43;100770.66;;;22.56;37.28
41513;BME280;27244;59.940;30.280;2023-10-31T11:38:11;100767.84;;;22.56;37.37
41513;BME280;27244;59.940;30.280;2023-10-31T11:40:58;100774.78;;;22.71;37.09
41513;BME280;27244;59.940;30.280;2023-10-31T11:43:35;100781.25;;;22.68;37.30
41513;BME280;27244;59.940;30.280;2023-10-31T11:46:03;100778.56;;;22.61;37.37
41513;BME280;27244;59.940;30.280;2023-10-31T11:48:45;100780.75;;;22.73;37.09
41513;BME280;27244;59.940;30.280;2023-10-31T11:51:13;100784.19;;;22.61;37.59
41513;BME280;27244;59.940;30.280;2023-10-31T11:53:40;100771.09;;;22.54;37.63
41513;BME280;27244;59.940;30.280;2023-10-31T11:56:18;100779.44;;;22.58;37.76
41513;BME280;27244;59.940;30.280;2023-10-31T11:58:54;100788.13;;;22.67;37.62
41513;BME280;27244;59.940;30.280;2023-10-31T12:01:21;100795.44;;;22.61;38.14
41513;BME280;27244;59.940;30.280;2023-10-31T12:03:48;100791.41;;;22.62;38.62
41513;BME280;27244;59.940;30.280;2023-10-31T12:06:17;100782.63;;;22.60;39.18
41513;BME280;27244;59.940;30.280;2023-10-31T12:08:45;100777.72;;;22.64;38.82
41513;BME280;27244;59.940;30.280;2023-10-31T12:11:15;100772.94;;;22.61;39.15
41513;BME280;27244;59.940;30.280;2023-10-31T12:13:54;100770.28;;;22.74;38.71
41513;BME280;27244;59.940;30.280;2023-10-31T12:16:23;100774.78;;;22.71;38.75
41513;BME280;27244;59.940;30.280;2023-10-31T12:18:54;100778.72;;;22.74;38.46
41513;BME280;27244;59.940;30.280;2023-10-31T12:21:34;100771.72;;;22.82;38.16
41513;BME280;27244;59.940;30.280;2023-10-31T12:24:03;100759.91;;;22.71;38.54
41513;BME280;27244;59.940;30.280;2023-10-31T12:26:32;100764.75;;;22.70;38.60
41513;BME280;27244;59.940;30.280;2023-10-31T12:29:08;100762.47;;;22.81;38.03
41513;BME280;27244;59.940;30.280;2023-10-31T12:31:42;100767.72;;;22.79;37.46
41513;BME280;27244;59.940;30.280;2023-10-31T12:34:09;100757.09;;;22.71;37.55
41513;BME280;27244;59.940;30.280;2023-10-31T12:36:37;100751.91;;;22.69;37.63
41513;BME280;27244;59.940;30.280;2023-10-31T12:39:05;100760.25;;;22.73;38.43
41513;BME280;27244;59.940;30.280;2023-10-31T12:41:33;100761.06;;;22.73;39.44
41513;BME280;27244;59.940;30.280;2023-10-31T12:44:01;100751.81;;;22.73;39.63